createdAt,value
2022-12-04T00:01:21.440Z,13.60
2022-12-04T00:03:48.617Z,14.23
2022-12-04T00:06:18.805Z,15.30
2022-12-04T00:08:47.850Z,15.27
2022-12-04T00:11:22.175Z,14.57
2022-12-04T00:13:49.594Z,13.88
2022-12-04T00:16:20.979Z,14.37
2022-12-04T00:18:48.129Z,15.23
2022-12-04T00:21:17.732Z,15.63
2022-12-04T00:23:45.385Z,15.02
2022-12-04T00:26:15.811Z,13.82
2022-12-04T00:28:43.992Z,15.23
2022-12-04T00:31:13.957Z,14.43
2022-12-04T00:33:41.263Z,13.95
2022-12-04T00:36:11.689Z,15.45
2022-12-04T00:38:39.762Z,15.50
2022-12-04T00:41:11.456Z,15.33
2022-12-04T00:43:38.669Z,14.73
2022-12-04T00:46:06.363Z,16.38
2022-12-04T00:48:33.461Z,14.35
2022-12-04T00:51:16.134Z,16.60
2022-12-04T00:53:43.378Z,16.50
2022-12-04T00:56:13.772Z,15.63
2022-12-04T00:58:40.747Z,15.88
2022-12-04T01:01:17.853Z,15.50
2022-12-04T01:03:45.758Z,15.52
2022-12-04T01:06:27.090Z,15.80
2022-12-04T01:08:55.156Z,15.60
2022-12-04T01:11:23.742Z,16.40
2022-12-04T01:13:51.335Z,15.23
2022-12-04T01:16:33.750Z,14.95
2022-12-04T01:19:01.442Z,15.40
2022-12-04T01:21:28.848Z,14.80
2022-12-04T01:23:55.927Z,15.63
2022-12-04T01:26:23.492Z,15.90
2022-12-04T01:28:50.696Z,14.63
2022-12-04T01:31:19.882Z,16.03
2022-12-04T01:33:47.993Z,15.02
2022-12-04T01:36:17.660Z,15.38
2022-12-04T01:38:45.373Z,15.10
2022-12-04T01:41:14.762Z,15.80
2022-12-04T01:43:42.727Z,14.80
2022-12-04T01:46:10.595Z,15.77
2022-12-04T01:48:46.873Z,15.30
2022-12-04T01:51:40.117Z,14.90
2022-12-04T01:54:12.200Z,14.27
2022-12-04T01:56:47.246Z,16.03
2022-12-04T01:59:17.615Z,15.43
2022-12-04T02:01:54.285Z,15.98
2022-12-04T02:04:21.677Z,14.93
2022-12-04T02:06:48.819Z,16.20
2022-12-04T02:09:19.325Z,15.87
2022-12-04T02:12:18.972Z,17.15
2022-12-04T02:15:12.195Z,14.63
2022-12-04T02:18:27.268Z,15.75
2022-12-04T02:21:03.215Z,15.15
2022-12-04T02:23:36.175Z,15.23
2022-12-04T02:26:38.294Z,15.32
2022-12-04T02:29:38.159Z,14.93
2022-12-04T02:32:12.771Z,14.25
2022-12-04T02:34:44.002Z,16.10
2022-12-04T02:37:30.562Z,15.17
2022-12-04T02:40:10.426Z,15.32
2022-12-04T02:42:45.957Z,16.40
2022-12-04T02:45:19.912Z,16.95
2022-12-04T02:47:47.522Z,16.77
2022-12-04T02:50:19.879Z,14.63
2022-12-04T02:52:56.041Z,16.08
2022-12-04T02:55:46.231Z,16.65
2022-12-04T02:58:23.084Z,15.63
2022-12-04T03:00:52.101Z,16.10
2022-12-04T03:03:25.444Z,16.23
2022-12-04T03:05:52.169Z,15.18
2022-12-04T03:08:24.517Z,15.23
2022-12-04T03:10:55.802Z,16.38
2022-12-04T03:13:47.868Z,16.10
2022-12-04T03:16:28.389Z,16.10
2022-12-04T03:19:01.938Z,16.55
2022-12-04T03:21:33.479Z,15.88
2022-12-04T03:24:12.597Z,17.23
2022-12-04T03:26:47.166Z,16.58
2022-12-04T03:29:21.411Z,16.37
2022-12-04T03:31:55.904Z,16.02
2022-12-04T03:34:35.565Z,15.90
2022-12-04T03:37:12.377Z,16.25
2022-12-04T03:40:03.675Z,15.57
2022-12-04T03:42:50.333Z,17.53
2022-12-04T03:45:23.233Z,13.35
2022-12-04T03:48:22.633Z,15.35
2022-12-04T03:51:02.646Z,15.80
2022-12-04T03:53:40.151Z,17.02
2022-12-04T03:56:14.206Z,16.37
2022-12-04T03:58:48.178Z,15.45
2022-12-04T04:01:20.555Z,17.10
2022-12-04T04:03:51.768Z,15.95
2022-12-04T04:06:38.131Z,16.02
2022-12-04T04:09:13.279Z,17.37
2022-12-04T04:12:11.438Z,15.32
2022-12-04T04:15:21.908Z,16.92
2022-12-04T04:18:08.877Z,17.40
2022-12-04T04:21:03.744Z,15.73
2022-12-04T04:23:56.573Z,16.43
2022-12-04T04:26:27.119Z,15.82
2022-12-04T04:28:54.039Z,15.60
2022-12-04T04:31:43.542Z,16.35
2022-12-04T04:34:21.875Z,15.05
2022-12-04T04:36:59.344Z,15.93
2022-12-04T04:39:49.248Z,17.13
2022-12-04T04:42:33.264Z,16.58
2022-12-04T04:45:25.019Z,16.83
2022-12-04T04:48:02.643Z,15.88
2022-12-04T04:50:30.284Z,15.97
2022-12-04T04:53:04.430Z,17.48
2022-12-04T04:55:34.734Z,16.85
2022-12-04T04:58:14.096Z,17.27
2022-12-04T05:00:45.149Z,16.48
2022-12-04T05:03:12.081Z,16.63
2022-12-04T05:05:39.042Z,16.67
2022-12-04T05:08:06.593Z,18.00
2022-12-04T05:10:33.496Z,16.80
2022-12-04T05:13:00.359Z,15.73
2022-12-04T05:15:27.276Z,17.40
2022-12-04T05:17:54.182Z,18.10
2022-12-04T05:20:21.018Z,15.40
2022-12-04T05:22:47.937Z,16.38
2022-12-04T05:25:14.832Z,18.88
2022-12-04T05:27:41.727Z,16.93
2022-12-04T05:30:10.468Z,17.52
2022-12-04T05:32:37.359Z,18.00
2022-12-04T05:35:10.617Z,16.48
2022-12-04T05:37:39.351Z,17.20
2022-12-04T05:40:07.637Z,17.43
2022-12-04T05:42:35.022Z,15.30
2022-12-04T05:45:02.108Z,15.73
2022-12-04T05:47:28.919Z,17.20
2022-12-04T05:49:56.007Z,14.57
2022-12-04T05:52:23.002Z,16.00
2022-12-04T05:54:49.883Z,15.65
2022-12-04T05:57:16.695Z,17.02
2022-12-04T05:59:43.497Z,16.38
2022-12-04T06:02:10.314Z,17.40
2022-12-04T06:04:38.631Z,16.10
2022-12-04T06:07:05.541Z,15.98
2022-12-04T06:09:32.391Z,16.00
2022-12-04T06:11:59.479Z,16.60
2022-12-04T06:14:26.530Z,15.95
2022-12-04T06:16:53.526Z,16.13
2022-12-04T06:19:22.484Z,15.90
2022-12-04T06:21:51.887Z,16.40
2022-12-04T06:24:23.109Z,15.40
2022-12-04T06:27:25.541Z,17.27
2022-12-04T06:29:37.387Z,15.53
2022-12-04T06:32:04.620Z,15.75
2022-12-04T06:34:32.621Z,15.15
2022-12-04T06:36:59.529Z,15.85
2022-12-04T06:39:26.406Z,15.30
2022-12-04T06:41:53.224Z,16.27
2022-12-04T06:44:20.040Z,17.05
2022-12-04T06:46:48.027Z,16.13
2022-12-04T06:49:16.064Z,16.40
2022-12-04T06:51:42.830Z,16.23
2022-12-04T06:54:10.979Z,14.77
2022-12-04T06:56:37.923Z,15.60
2022-12-04T06:59:05.821Z,15.82
2022-12-04T07:01:34.649Z,15.32
2022-12-04T07:04:04.094Z,16.05
2022-12-04T07:06:36.392Z,16.83
2022-12-04T07:09:10.007Z,14.68
2022-12-04T07:11:37.487Z,15.57
2022-12-04T07:14:04.763Z,16.10
2022-12-04T07:16:38.361Z,15.07
2022-12-04T07:19:08.290Z,16.53
2022-12-04T07:21:36.434Z,15.82
2022-12-04T07:24:03.517Z,16.63
2022-12-04T07:26:31.186Z,16.67
2022-12-04T07:28:59.069Z,16.40
2022-12-04T07:31:27.867Z,17.17
2022-12-04T07:33:55.358Z,14.82
2022-12-04T07:36:23.697Z,19.02
2022-12-04T07:38:51.492Z,16.63
2022-12-04T07:41:20.741Z,16.60
2022-12-04T07:43:47.921Z,16.70
2022-12-04T07:46:18.385Z,15.70
2022-12-04T07:48:45.498Z,17.05
2022-12-04T07:51:14.884Z,17.52
2022-12-04T07:53:42.554Z,16.13
2022-12-04T07:56:11.106Z,15.20
2022-12-04T07:58:38.505Z,17.15
2022-12-04T08:01:11.174Z,16.45
2022-12-04T08:03:45.200Z,16.70
2022-12-04T08:06:15.009Z,16.05
2022-12-04T08:08:42.088Z,17.07
2022-12-04T08:11:15.065Z,16.85
2022-12-04T08:13:42.325Z,16.15
2022-12-04T08:16:11.673Z,15.43
2022-12-04T08:18:38.606Z,16.10
2022-12-04T08:21:12.793Z,16.13
2022-12-04T08:23:41.161Z,15.63
2022-12-04T08:26:08.904Z,16.52
2022-12-04T08:28:36.222Z,16.17
2022-12-04T08:31:18.231Z,17.50
2022-12-04T08:33:46.366Z,15.10
2022-12-04T08:36:16.119Z,15.90
2022-12-04T08:38:43.277Z,16.25
2022-12-04T08:41:13.094Z,15.95
2022-12-04T08:43:40.295Z,15.38
2022-12-04T08:46:10.581Z,16.73
2022-12-04T08:48:38.419Z,15.60
2022-12-04T08:51:08.301Z,15.98
2022-12-04T08:53:38.847Z,14.20
2022-12-04T08:56:05.996Z,14.20
2022-12-04T08:58:33.026Z,15.10
2022-12-04T09:01:08.363Z,15.15
2022-12-04T09:03:35.789Z,14.18
2022-12-04T09:06:04.844Z,15.57
2022-12-04T09:08:32.740Z,15.10
2022-12-04T09:11:07.827Z,16.23
2022-12-04T09:13:35.813Z,14.48
2022-12-04T09:16:08.709Z,15.35
2022-12-04T09:18:36.974Z,14.45
2022-12-04T09:21:06.980Z,15.68
2022-12-04T09:23:35.757Z,15.67
2022-12-04T09:26:03.734Z,14.93
2022-12-04T09:28:31.230Z,15.60
2022-12-04T09:31:03.923Z,14.48
2022-12-04T09:33:31.272Z,13.52
2022-12-04T09:36:03.031Z,16.73
2022-12-04T09:38:30.896Z,14.40
2022-12-04T09:41:22.650Z,14.30
2022-12-04T09:43:58.842Z,14.38
2022-12-04T09:46:39.457Z,13.68
2022-12-04T09:49:22.065Z,15.40
2022-12-04T09:51:50.802Z,15.32
2022-12-04T09:54:23.756Z,12.18
2022-12-04T09:57:03.814Z,13.60
2022-12-04T09:59:35.019Z,13.38
2022-12-04T10:02:19.687Z,13.33
2022-12-04T10:04:46.631Z,13.45
2022-12-04T10:07:18.933Z,14.32
2022-12-04T10:09:54.421Z,13.35
2022-12-04T10:12:37.808Z,13.60
2022-12-04T10:15:16.895Z,12.47
2022-12-04T10:18:14.576Z,11.73
2022-12-04T10:20:53.273Z,12.13
2022-12-04T10:23:53.105Z,11.63
2022-12-04T10:26:24.584Z,11.88
2022-12-04T10:28:57.813Z,10.77
2022-12-04T10:31:26.342Z,11.73
2022-12-04T10:33:53.320Z,10.93
2022-12-04T10:36:24.935Z,10.13
2022-12-04T10:38:57.170Z,11.02
2022-12-04T10:41:51.833Z,9.73
2022-12-04T10:44:20.715Z,9.82
2022-12-04T10:46:48.369Z,10.68
2022-12-04T10:49:29.060Z,9.65
2022-12-04T10:51:56.504Z,9.85
2022-12-04T10:54:32.849Z,9.07
2022-12-04T10:57:06.029Z,10.45
2022-12-04T10:59:34.613Z,10.68
2022-12-04T11:02:28.537Z,10.75
2022-12-04T11:05:01.926Z,9.60
2022-12-04T11:07:32.427Z,10.83
2022-12-04T11:10:21.522Z,9.80
2022-12-04T11:13:06.180Z,10.43
2022-12-04T11:15:42.897Z,10.07
2022-12-04T11:18:17.979Z,9.13
2022-12-04T11:21:07.916Z,9.23
2022-12-04T11:23:42.857Z,8.88
2022-12-04T11:26:11.031Z,8.30
2022-12-04T11:28:42.330Z,9.05
2022-12-04T11:31:16.694Z,9.45
2022-12-04T11:33:48.382Z,8.13
2022-12-04T11:36:24.009Z,9.18
2022-12-04T11:39:04.824Z,8.35
2022-12-04T11:41:33.187Z,8.50
2022-12-04T11:44:01.078Z,9.43
2022-12-04T11:46:36.038Z,9.33
2022-12-04T11:49:04.452Z,8.73
2022-12-04T11:52:02.453Z,8.82
2022-12-04T11:54:48.534Z,8.60
2022-12-04T11:57:37.934Z,7.72
2022-12-04T12:00:19.039Z,8.67
2022-12-04T12:03:10.434Z,7.97
2022-12-04T12:06:08.475Z,8.27
2022-12-04T12:09:09.308Z,8.48
2022-12-04T12:11:42.311Z,7.60
2022-12-04T12:14:17.557Z,8.03
2022-12-04T12:16:59.403Z,7.93
2022-12-04T12:19:57.181Z,8.68
2022-12-04T12:22:42.812Z,7.40
2022-12-04T12:25:27.010Z,7.72
2022-12-04T12:28:18.132Z,8.13
2022-12-04T12:31:10.127Z,7.10
2022-12-04T12:34:01.434Z,6.85
2022-12-04T12:36:38.793Z,6.90
2022-12-04T12:39:16.673Z,7.50
2022-12-04T12:41:49.481Z,7.57
2022-12-04T12:44:58.165Z,7.95
2022-12-04T12:47:31.159Z,7.55
2022-12-04T12:50:36.613Z,6.97
2022-12-04T12:53:13.598Z,6.43
2022-12-04T12:55:46.123Z,7.07
2022-12-04T12:58:57.459Z,7.53
2022-12-04T13:01:45.938Z,8.80
2022-12-04T13:04:37.540Z,8.23
2022-12-04T13:07:27.629Z,7.30
2022-12-04T13:10:17.301Z,7.83
2022-12-04T13:12:49.874Z,7.30
2022-12-04T13:15:20.598Z,7.30
2022-12-04T13:17:49.905Z,7.65
2022-12-04T13:20:28.958Z,7.85
2022-12-04T13:23:23.588Z,6.83
2022-12-04T13:26:10.473Z,7.15
2022-12-04T13:28:40.281Z,8.05
2022-12-04T13:31:19.306Z,7.85
2022-12-04T13:34:07.716Z,7.82
2022-12-04T13:36:52.760Z,7.93
2022-12-04T13:39:31.826Z,7.63
2022-12-04T13:42:02.636Z,7.22
2022-12-04T13:44:31.880Z,8.75
2022-12-04T13:47:10.170Z,7.97
2022-12-04T13:49:42.464Z,8.90
2022-12-04T13:52:40.977Z,8.05
2022-12-04T13:55:28.241Z,7.47
2022-12-04T13:58:01.236Z,8.70
2022-12-04T14:00:35.291Z,8.20
2022-12-04T14:03:21.611Z,8.73
2022-12-04T14:05:48.884Z,9.43
2022-12-04T14:08:25.507Z,8.48
2022-12-04T14:11:15.239Z,8.57
2022-12-04T14:13:52.517Z,9.38
2022-12-04T14:16:41.192Z,7.27
2022-12-04T14:19:09.136Z,9.25
2022-12-04T14:21:44.626Z,9.48
2022-12-04T14:24:25.609Z,9.48
2022-12-04T14:27:11.327Z,9.40
2022-12-04T14:29:49.700Z,9.70
2022-12-04T14:32:24.638Z,9.60
2022-12-04T14:34:52.051Z,10.35
2022-12-04T14:37:44.660Z,9.88
2022-12-04T14:40:27.215Z,10.90
2022-12-04T14:42:55.065Z,11.23
2022-12-04T14:45:43.902Z,11.05
2022-12-04T14:48:29.045Z,10.13
2022-12-04T14:51:12.807Z,9.95
2022-12-04T14:54:11.894Z,11.13
2022-12-04T14:56:50.774Z,11.07
2022-12-04T14:59:21.359Z,13.10
2022-12-04T15:01:52.123Z,11.95
2022-12-04T15:04:33.178Z,10.38
2022-12-04T15:07:01.036Z,12.73
2022-12-04T15:09:47.332Z,11.30
2022-12-04T15:12:37.656Z,12.63
2022-12-04T15:15:26.672Z,11.27
2022-12-04T15:18:15.181Z,12.10
2022-12-04T15:20:56.732Z,12.52
2022-12-04T15:23:37.474Z,12.90
2022-12-04T15:26:15.744Z,11.63
2022-12-04T15:28:45.514Z,13.07
2022-12-04T15:31:29.816Z,12.88
2022-12-04T15:34:01.432Z,13.95
2022-12-04T15:36:28.222Z,13.40
2022-12-04T15:38:55.716Z,12.68
2022-12-04T15:41:34.480Z,11.75
2022-12-04T15:44:03.820Z,12.05
2022-12-04T15:46:34.370Z,12.23
2022-12-04T15:49:29.133Z,12.63
2022-12-04T15:52:11.319Z,11.63
2022-12-04T15:54:43.693Z,13.68
2022-12-04T15:57:37.072Z,12.43
2022-12-04T16:00:07.411Z,13.32
2022-12-04T16:02:41.814Z,12.30
2022-12-04T16:05:20.932Z,12.88
2022-12-04T16:07:53.480Z,13.23
2022-12-04T16:10:29.921Z,12.15
2022-12-04T16:13:01.017Z,13.23
2022-12-04T16:15:44.047Z,13.67
2022-12-04T16:18:14.212Z,12.05
2022-12-04T16:20:41.585Z,11.90
2022-12-04T16:23:09.994Z,13.73
2022-12-04T16:25:37.335Z,12.65
2022-12-04T16:28:04.449Z,14.00
2022-12-04T16:30:34.243Z,12.73
2022-12-04T16:33:01.498Z,13.68
2022-12-04T16:35:30.628Z,13.45
2022-12-04T16:37:57.673Z,13.23
2022-12-04T16:40:24.562Z,12.13
2022-12-04T16:42:51.424Z,13.73
2022-12-04T16:45:22.194Z,13.15
2022-12-04T16:47:49.537Z,13.25
2022-12-04T16:50:17.153Z,13.27
2022-12-04T16:52:44.176Z,13.60
2022-12-04T16:55:19.144Z,13.20
2022-12-04T16:57:46.508Z,13.68
2022-12-04T17:00:15.708Z,13.30
2022-12-04T17:02:43.336Z,14.80
2022-12-04T17:05:20.606Z,12.23
2022-12-04T17:07:53.897Z,12.63
2022-12-04T17:10:24.329Z,14.55
2022-12-04T17:13:00.441Z,13.38
2022-12-04T17:15:27.713Z,11.40
2022-12-04T17:17:54.815Z,14.73
2022-12-04T17:20:22.331Z,12.32
2022-12-04T17:22:49.758Z,12.32
2022-12-04T17:25:20.307Z,13.45
2022-12-04T17:27:48.027Z,13.32
2022-12-04T17:30:16.974Z,13.20
2022-12-04T17:32:43.922Z,12.38
2022-12-04T17:35:12.756Z,13.00
2022-12-04T17:37:39.800Z,12.93
2022-12-04T17:40:08.010Z,12.38
2022-12-04T17:42:35.182Z,11.27
2022-12-04T17:45:02.484Z,11.80
2022-12-04T17:47:34.582Z,12.18
2022-12-04T17:50:01.800Z,11.30
2022-12-04T17:52:32.795Z,10.13
2022-12-04T17:54:59.914Z,11.53
2022-12-04T17:57:27.994Z,10.60
2022-12-04T17:59:54.975Z,11.00
2022-12-04T18:02:21.911Z,11.80
2022-12-04T18:04:49.021Z,11.88
2022-12-04T18:07:16.037Z,10.27
2022-12-04T18:09:42.943Z,10.93
2022-12-04T18:12:09.946Z,11.07
2022-12-04T18:14:37.335Z,10.48
2022-12-04T18:17:04.634Z,11.00
2022-12-04T18:19:32.491Z,10.23
2022-12-04T18:22:00.016Z,11.68
2022-12-04T18:24:27.988Z,10.27
2022-12-04T18:26:54.903Z,10.85
2022-12-04T18:29:26.575Z,11.05
2022-12-04T18:34:38.481Z,12.35
2022-12-04T18:37:05.664Z,13.82
2022-12-04T18:39:32.579Z,13.05
2022-12-04T18:42:00.177Z,13.02
2022-12-04T18:44:27.216Z,13.47
2022-12-04T18:46:54.143Z,13.73
2022-12-04T18:49:21.165Z,14.48
2022-12-04T18:51:50.005Z,13.55
2022-12-04T18:54:29.073Z,12.48
2022-12-04T18:56:56.020Z,13.77
2022-12-04T18:59:25.762Z,12.95
2022-12-04T19:01:54.342Z,13.27
2022-12-04T19:04:23.517Z,10.75
2022-12-04T19:06:53.868Z,13.60
2022-12-04T19:09:40.740Z,13.40
2022-12-04T19:12:11.904Z,14.13
2022-12-04T19:14:40.186Z,14.43
2022-12-04T19:17:07.927Z,16.95
2022-12-04T19:19:35.023Z,15.63
2022-12-04T19:22:02.545Z,14.97
2022-12-04T19:24:29.574Z,18.92
2022-12-04T19:26:56.556Z,15.70
2022-12-04T19:29:23.810Z,16.85
2022-12-04T19:31:54.609Z,16.98
2022-12-04T19:34:24.569Z,14.93
2022-12-04T19:36:54.691Z,15.57
2022-12-04T19:39:21.524Z,17.27
2022-12-04T19:41:48.996Z,16.45
2022-12-04T19:44:47.409Z,16.13
2022-12-04T19:47:03.710Z,19.27
2022-12-04T19:49:30.708Z,15.55
2022-12-04T19:51:58.318Z,15.45
2022-12-04T19:54:26.327Z,17.88
2022-12-04T19:56:53.223Z,15.40
2022-12-04T19:59:20.776Z,16.33
2022-12-04T20:01:48.364Z,17.25
2022-12-04T20:04:15.844Z,15.25
2022-12-04T20:06:45.636Z,15.38
2022-12-04T20:09:20.496Z,16.85
2022-12-04T20:11:48.031Z,17.27
2022-12-04T20:14:15.464Z,15.63
2022-12-04T20:16:43.306Z,16.10
2022-12-04T20:19:15.217Z,16.25
2022-12-04T20:21:43.304Z,16.90
2022-12-04T20:24:13.971Z,16.07
2022-12-04T20:26:43.197Z,14.82
2022-12-04T20:29:13.318Z,15.30
2022-12-04T20:31:42.363Z,14.73
2022-12-04T20:34:13.518Z,16.40
2022-12-04T20:36:45.019Z,13.97
2022-12-04T20:39:13.999Z,14.88
2022-12-04T20:41:41.595Z,15.95
2022-12-04T20:44:12.482Z,14.25
2022-12-04T20:46:40.525Z,14.98
2022-12-04T20:49:10.711Z,15.83
2022-12-04T20:51:41.292Z,15.38
2022-12-04T20:54:11.418Z,14.10
2022-12-04T20:56:38.828Z,16.00
2022-12-04T20:59:12.715Z,14.93
2022-12-04T21:01:40.474Z,14.83
2022-12-04T21:04:08.007Z,14.95
2022-12-04T21:06:38.547Z,15.90
2022-12-04T21:09:14.548Z,15.30
2022-12-04T21:11:44.295Z,14.43
2022-12-04T21:14:32.566Z,17.80
2022-12-04T21:16:59.894Z,16.52
2022-12-04T21:19:27.157Z,15.10
2022-12-04T21:21:54.394Z,15.48
2022-12-04T21:24:23.646Z,14.93
2022-12-04T21:26:50.475Z,16.03
2022-12-04T21:29:17.341Z,15.80
2022-12-04T21:31:44.744Z,15.55
2022-12-04T21:34:15.943Z,15.05
2022-12-04T21:36:43.710Z,15.23
2022-12-04T21:39:11.045Z,16.60
2022-12-04T21:41:56.609Z,15.60
2022-12-04T21:44:24.062Z,15.05
2022-12-04T21:46:51.340Z,14.70
2022-12-04T21:49:19.693Z,15.45
2022-12-04T21:52:02.335Z,15.63
2022-12-04T21:54:29.820Z,16.70
2022-12-04T21:56:57.922Z,16.15
2022-12-04T21:59:26.487Z,16.00
2022-12-04T22:01:53.778Z,15.18
2022-12-04T22:04:21.745Z,16.20
2022-12-04T22:06:48.822Z,14.55
2022-12-04T22:09:15.840Z,15.55
2022-12-04T22:11:43.341Z,16.10
2022-12-04T22:14:11.122Z,16.67
2022-12-04T22:16:42.301Z,15.13
2022-12-04T22:19:13.250Z,15.27
2022-12-04T22:21:40.514Z,15.20
2022-12-04T22:24:08.436Z,15.00
2022-12-04T22:26:36.213Z,15.13
2022-12-04T22:29:20.733Z,15.27
2022-12-04T22:31:51.424Z,15.38
2022-12-04T22:34:18.532Z,14.40
2022-12-04T22:36:45.839Z,15.27
2022-12-04T22:39:12.857Z,15.60
2022-12-04T22:41:40.070Z,15.67
2022-12-04T22:44:07.941Z,14.57
2022-12-04T22:46:34.976Z,15.13
2022-12-04T22:49:02.250Z,13.77
2022-12-04T22:51:29.273Z,14.65
2022-12-04T22:53:59.765Z,14.60
2022-12-04T22:56:32.041Z,15.10
2022-12-04T22:58:59.678Z,14.52
2022-12-04T23:01:34.114Z,15.02
2022-12-04T23:04:02.927Z,16.13
2022-12-04T23:06:32.004Z,15.13
2022-12-04T23:09:14.262Z,14.25
2022-12-04T23:11:41.956Z,15.38
2022-12-04T23:14:13.078Z,14.07
2022-12-04T23:16:40.242Z,14.20
2022-12-04T23:19:08.757Z,14.87
2022-12-04T23:21:35.688Z,14.45
2022-12-04T23:24:02.785Z,16.67
2022-12-04T23:26:39.419Z,13.40
2022-12-04T23:29:23.307Z,14.13
2022-12-04T23:31:54.555Z,14.67
2022-12-04T23:34:21.443Z,13.55
2022-12-04T23:36:48.287Z,13.40
2022-12-04T23:39:15.137Z,12.80
2022-12-04T23:41:41.970Z,13.27
2022-12-04T23:44:08.868Z,13.73
2022-12-04T23:46:35.852Z,12.43
2022-12-04T23:49:03.300Z,12.52
2022-12-04T23:51:30.581Z,12.73
2022-12-04T23:53:57.485Z,13.52
2022-12-04T23:56:26.575Z,13.27
2022-12-04T23:58:55.799Z,12.60
